Robein, Illinois
Current Conditions -  °F | °C
As of 1:54 AM on Monday 24 Nov 2014 (Local Time) from KPIA Reporting Station
Overcast Overcast  
Wind Chill: 41°   Ceiling: 600
Heat Index: 47°   Visibility: 9mi
Dew Point: 43°   Wind: 14mph
Humidity: 86%   Direction: 290°WNW
Pressure: 29.16"   Gusts: 24mph
Location:  40.7043°N, 89.529°W
Report Text: KPIA 240754Z 29012G21KT 9SM OVC006 08/06 A2916 RMK AO2 RAE43 SLP875 P0000 T00830061
Loading
Personal Weather Stations






























Interactive Weather Map New forecast layout! Learn more

10-Day Weather Forecast

Advertisements
Track Severe Weather on mobile